WEATHER DATA

YESTERDAY
Time Temp. Dewp. Hum. Wind dir Wind speed Wind gust Bar. 1h Prec. 24h Prec.
00:04 12 8.8 81 346 4.4 5.8 1023.2 0.0000 0.0000
00:14 11.9 8.7 81 346 4.4 5.6 1023.2 0.0000 0.0000
00:24 11.8 8.6 81 348 5 5.8 1023.3 0.0000 0.0000
00:45 11.7 8.6 81 347 4.4 5.8 1023.2 0.0000 0.0000
00:52 11.6 8.6 82 346 4.4 6.1 1023 0.0000 0.0000
01:11 11.6 8.5 81 345 4.4 6.7 1023 0.0000 0.0000
01:22 11.5 8.4 81 344 4.4 6.1 1023.1 0.0000 0.0000
01:32 11.5 8.4 81 348 4.4 5.8 1023.3 0.0000 0.0000
01:42 11.7 8.6 81 348 4.4 6.1 1023.1 0.0000 0.0000
01:52 11.8 8.5 80 347 4.2 5.6 1023.1 0.0000 0.0000
02:02 11.8 8.5 80 344 4.2 6.1 1023.2 0.0000 0.0000
02:12 11.7 8.4 80 345 4.4 6.1 1023 0.0000 0.0000
02:22 11.5 8.4 81 348 5 6.1 1022.7 0.0000 0.0000
02:32 11.4 8.3 81 345 5 6.1 1022.9 0.0000 0.0000
02:42 11.3 8.2 81 349 5 6.1 1022.7 0.0000 0.0000
02:52 11.1 8 81 348 5 6.1 1022.8 0.0000 0.0000
03:02 11.1 8.1 82 346 5 6.7 1022.8 0.0000 0.0000
03:13 11.1 8.1 82 350 5.3 6.1 1023.1 0.0000 0.0000
03:23 11.2 8.2 82 348 5.3 6.7 1023 0.0000 0.0000
03:32 11.1 8.1 82 347 5.3 6.7 1023.2 0.0000 0.0000
03:43 11 8 82 348 5.3 6.7 1023.2 0.0000 0.0000
03:53 11 8 82 348 5.3 6.7 1023.3 0.0000 0.0000
04:03 10.9 8 82 347 5 6.7 1023.4 0.0000 0.0000
04:17 10.8 7.9 82 346 5.3 6.7 1023.7 0.0000 0.0000
04:26 10.8 7.9 82 348 5.3 6.9 1023.8 0.0000 0.0000
04:36 10.8 7.9 82 346 5 6.1 1024.1 0.0000 0.0000
04:47 10.8 8 83 348 5.3 6.7 1024.1 0.0000 0.0000
04:57 10.8 8 83 349 5 6.7 1024.2 0.0000 0.0000
05:07 10.9 8.1 83 348 5 6.1 1024.2 0.0000 0.0000
05:17 10.9 8 82 348 5 6.7 1024.2 0.0000 0.0000
05:27 10.9 8 82 344 5 6.7 1024.4 0.0000 0.0000
05:37 11.1 8.1 82 347 5 6.7 1024.4 0.0000 0.0000
05:47 11.2 8.2 82 346 4.4 5.8 1024.3 0.0000 0.0000
05:58 11.2 8.2 82 347 5 6.1 1024.4 0.0000 0.0000
06:07 11.3 8.2 81 345 4.4 5.8 1024.5 0.0000 0.0000
06:17 11.3 8.2 81 348 5 6.7 1024.4 0.0000 0.0000
06:27 11.2 8.1 81 349 5 6.1 1024.3 0.0000 0.0000
06:38 11.2 8.1 81 345 4.4 6.1 1024.4 0.0000 0.0000
06:47 11.1 8.1 82 345 5 6.9 1024.5 0.0000 0.0000
06:57 11.2 8.2 82 346 5 6.1 1024.5 0.0000 0.0000
07:08 11.3 8.3 82 346 4.4 6.1 1024.7 0.0000 0.0000
07:18 11.4 8.3 81 343 4.2 5.6 1024.5 0.0000 0.0000
07:28 11.6 8.5 81 344 4.2 5.8 1024.7 0.0000 0.0000
07:38 11.7 8.4 80 344 4.2 5.6 1024.9 0.0000 0.0000
07:48 11.8 8.5 80 345 4.4 5.8 1025.1 0.0000 0.0000
07:58 11.7 8.4 80 342 4.2 5.8 1025.3 0.0000 0.0000
08:08 11.8 8.6 81 340 3.9 5.6 1025.4 0.0000 0.0000
08:19 12.2 9 81 321 3.1 4.4 1025.3 0.0000 0.0000
08:28 12.6 9.2 80 270 2.2 4.2 1025.4 0.0000 0.0000
08:38 13 9.3 78 264 1.9 3.9 1025.4 0.0000 0.0000
08:48 13.5 9.6 77 263 1.9 4.2 1025.4 0.0000 0.0000
08:59 14 9.8 76 243 1.7 3.6 1025.3 0.0000 0.0000
09:08 14.7 10.3 75 236 1.7 3.1 1025.4 0.0000 0.0000
09:18 15.3 10.5 73 234 1.7 3.1 1025.5 0.0000 0.0000
09:29 16 10.8 71 244 1.7 3.1 1025.5 0.0000 0.0000
09:39 16.5 10.8 69 225 1.7 2.5 1025.5 0.0000 0.0000
09:49 17.1 11.2 68 236 1.7 2.2 1025.4 0.0000 0.0000
09:59 17.8 11.8 68 315 1.9 3.3 1025.3 0.0000 0.0000
10:09 18.2 12 67 261 1.7 3.3 1025.3 0.0000 0.0000
10:19 18.6 12.4 67 260 1.7 3.6 1025.5 0.0000 0.0000
10:29 18.9 12.2 65 304 1.9 3.6 1025.4 0.0000 0.0000
10:40 19.1 12.1 64 280 1.9 3.6 1025.4 0.0000 0.0000
10:49 19.2 12.2 64 325 2.2 3.6 1025.4 0.0000 0.0000
10:59 19.1 11.9 63 254 1.7 3.6 1025.3 0.0000 0.0000
11:09 19.1 12.1 64 261 1.9 3.6 1025.1 0.0000 0.0000
11:20 19.2 12.2 64 295 1.9 4.2 1025.1 0.0000 0.0000
11:30 19.2 12.2 64 322 2.5 3.9 1025.1 0.0000 0.0000
11:39 19.3 12.3 64 336 2.5 3.9 1025 0.0000 0.0000
11:50 19.3 12.6 65 334 2.5 3.9 1024.8 0.0000 0.0000
12:00 19.4 12.7 65 342 3.3 4.2 1024.6 0.0000 0.0000
12:10 19.6 13.1 66 349 3.3 4.4 1024.6 0.0000 0.0000
12:19 19.9 13.1 65 352 3.9 4.4 1024.5 0.0000 0.0000
12:30 20.2 13.4 65 348 3.3 4.4 1024.4 0.0000 0.0000
12:40 20.2 13.2 64 322 2.5 4.2 1024.2 0.0000 0.0000
12:50 20.2 13.4 65 321 2.5 4.2 1024.2 0.0000 0.0000
13:01 20.1 13.3 65 326 2.5 4.4 1024.2 0.0000 0.0000
13:10 20.1 13.3 65 335 3.1 4.4 1024.3 0.0000 0.0000
13:20 20 13.2 65 318 2.2 3.9 1024.2 0.0000 0.0000
13:30 20.1 13.3 65 328 2.2 3.6 1024.1 0.0000 0.0000
13:41 20.2 13.4 65 331 2.5 4.2 1024 0.0000 0.0000
13:51 20.3 13.3 64 333 2.5 3.9 1024.2 0.0000 0.0000
14:00 20.5 13.5 64 329 2.2 3.9 1024.1 0.0000 0.0000
14:11 20.5 13.5 64 348 3.1 4.2 1024.3 0.0000 0.0000
14:21 20.5 13.5 64 353 3.1 4.2 1024.1 0.0000 0.0000
14:31 20.4 13.4 64 356 3.1 4.4 1024.1 0.0000 0.0000
14:40 20.4 13.4 64 358 3.1 3.9 1023.9 0.0000 0.0000
14:51 20.3 13.3 64 357 3.3 4.4 1024.1 0.0000 0.0000
15:01 20.2 13.4 65 357 3.6 4.2 1024.3 0.0000 0.0000
15:11 20.1 13.6 66 356 3.3 4.2 1024.4 0.0000 0.0000
15:21 20.1 13.6 66 351 3.3 4.2 1024.2 0.0000 0.0000
15:31 20 13.5 66 330 2.5 3.9 1024.2 0.0000 0.0000
15:41 19.8 13.3 66 344 3.1 3.9 1024.3 0.0000 0.0000
15:51 19.3 13.3 68 342 3.1 4.2 1024.5 0.0000 0.0000
16:02 18.9 13.3 70 340 3.1 4.2 1024.5 0.0000 0.0000
16:12 18.5 13.1 71 345 3.1 4.2 1024.3 0.0000 0.0000
16:21 18.3 13.2 72 349 3.3 4.2 1024.4 0.0000 0.0000
16:42 17.8 13.1 74 355 3.3 3.9 1024.2 0.0000 0.0000
16:52 17.7 13.2 75 356 3.3 4.2 1024.4 0.0000 0.0000
17:02 17.5 13.2 76 354 3.3 4.2 1024.5 0.0000 0.0000
17:12 17.4 13.1 76 358 3.6 4.4 1024.6 0.0000 0.0000
17:22 17.2 13.1 77 353 3.3 4.2 1024.5 0.0000 0.0000
17:32 17.1 13.2 78 350 3.1 4.2 1024.6 0.0000 0.0000
17:42 17 12.9 77 348 3.3 4.2 1024.6 0.0000 0.0000
17:53 16.8 12.7 77 351 3.6 4.2 1024.6 0.0000 0.0000
18:02 16.6 12.8 78 349 3.6 4.4 1024.7 0.0000 0.0000
18:12 16.5 12.7 78 350 3.9 4.4 1024.8 0.0000 0.0000
18:23 16.3 12.7 79 351 3.9 4.4 1024.8 0.0000 0.0000
18:33 16.1 12.5 79 351 3.9 5 1024.9 0.0000 0.0000
18:43 15.9 12.3 79 351 3.9 5.3 1024.8 0.0000 0.0000
18:53 15.8 12.4 80 351 3.9 5 1025 0.0000 0.0000
19:03 15.6 12.2 80 350 4.2 5 1025 0.0000 0.0000
19:13 15.4 12.2 81 351 4.2 5 1025.1 0.0000 0.0000
19:23 15.2 12 81 350 4.2 5 1025.1 0.0000 0.0000
19:33 14.9 11.7 81 350 4.2 5.3 1025.2 0.0000 0.0000
19:43 14.6 11.6 82 351 4.2 5.6 1025 0.0000 0.0000
19:53 14.5 11.7 83 348 4.2 5 1025.1 0.0000 0.0000
20:03 14.3 11.5 83 349 4.2 5.3 1025.1 0.0000 0.0000
20:14 14.1 11.3 83 349 4.2 5.3 1025.2 0.0000 0.0000
20:23 14 11.2 83 349 4.2 5.3 1025.5 0.0000 0.0000
20:33 13.8 11 83 348 4.2 5.6 1025.4 0.0000 0.0000
20:44 13.7 11 84 349 4.2 5.3 1025.4 0.0000 0.0000
20:54 13.7 11 84 350 4.4 5.6 1025.3 0.0000 0.0000
21:04 13.6 11 84 350 4.4 5.3 1025.4 0.0000 0.0000
21:14 13.5 10.9 84 347 4.2 5.6 1025.4 0.0000 0.0000
21:24 13.4 10.8 84 347 4.4 5.6 1025.4 0.0000 0.0000
21:34 13.3 10.8 85 347 4.2 5.6 1025.5 0.0000 0.0000
21:44 13.2 10.7 85 346 4.2 5.6 1025.4 0.0000 0.0000
21:54 13.2 10.9 86 346 4.2 5.8 1025.6 0.0000 0.0000
22:04 13.1 10.6 85 347 4.2 5.8 1025.5 0.0000 0.0000
22:14 13.1 10.6 85 348 4.4 5.6 1025.5 0.0000 0.0000
22:24 13.1 10.6 85 346 4.2 5.6 1025.6 0.0000 0.0000
22:35 13.2 10.9 86 348 4.2 5.6 1025.4 0.0000 0.0000
22:44 13.2 10.7 85 350 4.4 5.6 1025.3 0.0000 0.0000
22:54 13.1 10.6 85 348 4.4 5.6 1025.2 0.0000 0.0000
23:05 13 10.5 85 348 4.4 5.6 1025.1 0.0000 0.0000
23:15 12.9 10.4 85 345 4.2 5.8 1025.1 0.0000 0.0000
23:25 12.7 10.2 85 345 4.2 5.8 1025.2 0.0000 0.0000
23:35 12.6 10.1 85 348 5 6.1 1025.2 0.0000 0.0000
23:45 12.4 10 85 348 4.4 6.1 1025.2 0.0000 0.0000
23:55 12.3 10 86 346 4.4 5.8 1025.1 0.0000

DAY STATISTIC

2020-10-30
TEMPERATURE
AVERAGE
14.9
HIGH
20.5
14:00
LOW
10.8
04:17
PRESSURE
AVERAGE
1024.5
HIGH
1025.6
21:54
LOW
1022.7
02:22
DEWPOINT
AVERAGE
10.7
HIGH
13.6
15:11
LOW
7.9
04:17
HUMIDITY
AVERAGE
77
HIGH
86
21:54
LOW
63
10:59
WIND SPEED
AVERAGE
3.8
HIGH
5.3
03:13
WIND GUST
AVERAGE
5.1
HIGH
6.9
04:26
WIND DIRECTION
PREVAILING
N
77.1%
N
77.1
NE
0.0
E
0.0
SE
0.0
S
0.0
SW
4.3
W
5.7
NW
12.9
PRECIPITATION
RAIN HOUR
0.0
RAIN DAY
0.0
TEMPERATURE (°C)
LOW
10.8
HIGH
20.5
AVERAGE
14.9
PRESSURE (hpa)
LOW
1022.7
HIGH
1025.6
AVERAGE
1024.5
DEVICE